Time;durP1;ratioP1;P1;durP2;ratioP2;P2;SDS_P1;SDS_P2;PMS_P1;PMS_P2;Temp;Humidity;BMP_temperature;BMP_pressure;BME280_temperature;BME280_humidity;BME280_pressure;Samples;Min_cycle;Max_cycle;Signal;HPM_P1;HPM_P2
2022/04/24 00:00:15;;;;;;;3.43;3.13;;;17.50;41.70;;;;;;5027028;28;20447;-68
2022/04/24 00:02:42;;;;;;;4.10;3.70;;;17.50;41.60;;;;;;5026948;28;20475;-69
2022/04/24 00:05:10;;;;;;;3.80;3.50;;;17.50;41.90;;;;;;5027397;28;20454;-68
2022/04/24 00:07:37;;;;;;;3.23;3.00;;;17.40;41.90;;;;;;5025841;28;20878;-67
2022/04/24 00:10:05;;;;;;;3.20;2.90;;;17.40;42.10;;;;;;5026505;28;20439;-67
2022/04/24 00:12:32;;;;;;;2.63;2.43;;;17.30;42.40;;;;;;5026201;28;20471;-67
2022/04/24 00:14:58;;;;;;;3.33;3.10;;;17.30;42.00;;;;;;5026028;28;20448;-67
2022/04/24 00:17:25;;;;;;;3.60;3.30;;;17.30;42.10;;;;;;5026064;28;20527;-69
2022/04/24 00:19:52;;;;;;;2.83;2.63;;;17.30;42.20;;;;;;5027315;28;20451;-69
2022/04/24 00:22:20;;;;;;;3.13;2.83;;;17.30;42.50;;;;;;5026570;28;20812;-69
2022/04/24 00:24:47;;;;;;;4.00;3.30;;;17.30;42.60;;;;;;5027294;28;20447;-67
2022/04/24 00:27:13;;;;;;;3.60;3.03;;;17.20;42.70;;;;;;5026808;28;20471;-68
2022/04/24 00:29:40;;;;;;;3.40;3.20;;;17.20;43.00;;;;;;5026843;28;20439;-67
2022/04/24 00:32:08;;;;;;;3.37;3.07;;;17.20;42.80;;;;;;5026939;28;20499;-68
2022/04/24 00:34:35;;;;;;;3.77;3.40;;;17.20;42.90;;;;;;5027449;28;20462;-68
2022/04/24 00:37:02;;;;;;;3.47;3.17;;;17.20;42.70;;;;;;5031811;28;20434;-69
2022/04/24 00:39:30;;;;;;;3.37;3.07;;;17.20;42.40;;;;;;5039585;28;20454;-69
2022/04/24 00:41:57;;;;;;;2.70;2.50;;;17.10;42.50;;;;;;5036766;28;20467;-69
2022/04/24 00:44:23;;;;;;;4.00;3.60;;;17.10;42.70;;;;;;5028405;28;20444;-67
2022/04/24 00:46:56;;;;;;;3.30;3.10;;;17.10;43.10;;;;;;5027597;28;20479;-68
2022/04/24 00:49:23;;;;;;;3.43;3.23;;;17.00;43.50;;;;;;5027115;28;20435;-67
2022/04/24 00:51:51;;;;;;;3.60;3.30;;;17.10;43.50;;;;;;5026607;28;20506;-69
2022/04/24 00:54:17;;;;;;;3.40;3.20;;;17.10;43.50;;;;;;5027031;28;20439;-68
2022/04/24 00:56:46;;;;;;;3.70;3.27;;;17.00;43.80;;;;;;5026929;28;20462;-67
2022/04/24 00:59:15;;;;;;;3.77;3.47;;;17.00;43.50;;;;;;5026591;28;20608;-67
2022/04/24 01:01:42;;;;;;;3.63;3.33;;;17.00;43.30;;;;;;5027381;28;20480;-69
2022/04/24 01:04:11;;;;;;;3.40;3.20;;;17.00;43.60;;;;;;5027277;28;20446;-67
2022/04/24 01:06:40;;;;;;;4.00;3.50;;;17.00;43.60;;;;;;5026835;28;20498;-67
2022/04/24 01:09:15;;;;;;;4.07;3.77;;;17.00;43.60;;;;;;5025621;28;20447;-69
2022/04/24 01:11:45;;;;;;;3.23;2.93;;;16.90;43.70;;;;;;5027010;28;20502;-67
2022/04/24 01:14:13;;;;;;;3.67;3.40;;;16.90;43.60;;;;;;5026858;28;20447;-67
2022/04/24 01:16:40;;;;;;;3.57;3.30;;;16.80;44.10;;;;;;5027066;28;20956;-69
2022/04/24 01:19:07;;;;;;;3.80;3.50;;;16.80;44.20;;;;;;5026761;28;20462;-67
2022/04/24 01:21:36;;;;;;;4.20;3.90;;;16.80;43.80;;;;;;5026883;28;20479;-69
2022/04/24 01:24:06;;;;;;;3.57;3.30;;;16.70;43.60;;;;;;5026925;28;20830;-68
2022/04/24 01:26:34;;;;;;;3.90;3.60;;;16.70;43.70;;;;;;5026839;28;20513;-67
2022/04/24 01:29:01;;;;;;;3.53;3.27;;;16.60;43.70;;;;;;5031623;28;20440;-68
2022/04/24 01:31:27;;;;;;;4.43;3.80;;;16.60;43.80;;;;;;5028758;28;20471;-69
2022/04/24 01:33:54;;;;;;;3.67;3.33;;;16.50;43.90;;;;;;5028487;28;20447;-67
2022/04/24 01:36:21;;;;;;;4.13;3.77;;;16.50;44.00;;;;;;5029244;28;20474;-67
2022/04/24 01:38:49;;;;;;;4.37;3.87;;;16.40;44.20;;;;;;5028228;28;20818;-69
2022/04/24 01:41:16;;;;;;;4.30;4.00;;;16.40;44.60;;;;;;5027983;28;20475;-68
2022/04/24 01:43:43;;;;;;;4.60;4.30;;;16.30;44.60;;;;;;5027952;28;20458;-68
2022/04/24 01:46:10;;;;;;;4.53;4.20;;;16.20;44.80;;;;;;5027836;28;20444;-68
2022/04/24 01:48:37;;;;;;;4.30;3.90;;;16.20;45.10;;;;;;5027744;28;20466;-69
2022/04/24 01:51:05;;;;;;;4.57;4.17;;;16.10;45.30;;;;;;5028071;28;20473;-69
2022/04/24 01:53:33;;;;;;;4.60;4.20;;;16.00;45.30;;;;;;5027890;28;20459;-69
2022/04/24 01:56:05;;;;;;;4.33;4.03;;;15.90;45.50;;;;;;5028443;28;20455;-68
2022/04/24 01:58:32;;;;;;;4.30;3.90;;;15.90;45.80;;;;;;5028859;28;20435;-68
2022/04/24 02:00:58;;;;;;;4.80;4.47;;;15.80;45.90;;;;;;5028437;28;20471;-69
2022/04/24 02:03:27;;;;;;;4.90;4.50;;;15.70;46.10;;;;;;5027837;28;20455;-68
2022/04/24 02:05:53;;;;;;;4.40;4.10;;;15.60;46.30;;;;;;5029106;28;20466;-67
2022/04/24 02:08:20;;;;;;;5.23;4.83;;;15.60;46.40;;;;;;5029535;28;21032;-67
2022/04/24 02:10:48;;;;;;;4.97;4.57;;;15.50;46.50;;;;;;5027360;28;21837;-68
2022/04/24 02:13:16;;;;;;;5.43;4.93;;;15.50;46.70;;;;;;5029741;28;20439;-68
2022/04/24 02:15:43;;;;;;;4.90;4.50;;;15.40;46.90;;;;;;5029046;28;20462;-67
2022/04/24 02:18:10;;;;;;;5.23;4.83;;;15.40;47.10;;;;;;5028275;28;20447;-69
2022/04/24 02:20:37;;;;;;;5.60;4.40;;;15.30;47.10;;;;;;5028146;28;20443;-67
2022/04/24 02:23:04;;;;;;;5.30;4.80;;;15.30;47.40;;;;;;5014188;28;20458;-69
2022/04/24 02:25:32;;;;;;;4.47;4.17;;;15.20;47.40;;;;;;5013761;28;20531;-69
2022/04/24 02:27:59;;;;;;;5.40;5.00;;;15.20;47.60;;;;;;5013589;28;20475;-69
2022/04/24 02:30:29;;;;;;;5.87;4.80;;;15.10;47.70;;;;;;5013271;28;20448;-69
2022/04/24 02:32:57;;;;;;;6.73;5.60;;;15.10;47.80;;;;;;5013438;28;20447;-69
2022/04/24 02:35:24;;;;;;;5.73;5.33;;;15.10;48.10;;;;;;5013503;28;20502;-69
2022/04/24 02:37:51;;;;;;;6.20;5.27;;;15.00;48.00;;;;;;5013582;28;20443;-69
2022/04/24 02:40:21;;;;;;;5.77;5.27;;;15.00;48.10;;;;;;5016974;28;20454;-69
2022/04/24 02:42:49;;;;;;;5.80;5.40;;;14.90;48.20;;;;;;5017524;28;20478;-69
2022/04/24 02:45:16;;;;;;;6.33;5.67;;;14.90;48.40;;;;;;5017609;28;20452;-69
2022/04/24 02:47:44;;;;;;;6.87;5.90;;;14.80;48.30;;;;;;5017477;28;20529;-69
2022/04/24 02:50:10;;;;;;;6.03;5.53;;;14.70;48.50;;;;;;5017557;28;20824;-69
2022/04/24 02:52:45;;;;;;;6.50;5.90;;;14.70;48.70;;;;;;5016910;28;20489;-69
2022/04/24 02:55:13;;;;;;;6.00;5.60;;;14.70;48.80;;;;;;5017327;28;20434;-69
2022/04/24 02:57:40;;;;;;;6.50;5.93;;;14.60;49.10;;;;;;5017347;28;20454;-69
2022/04/24 03:00:08;;;;;;;6.60;6.00;;;14.60;49.20;;;;;;5016877;28;20969;-69
2022/04/24 03:02:41;;;;;;;6.83;6.23;;;14.60;49.30;;;;;;5016752;28;20506;-69
2022/04/24 03:05:10;;;;;;;5.90;5.50;;;14.50;49.40;;;;;;5017035;28;20435;-69
2022/04/24 03:07:37;;;;;;;8.67;6.57;;;14.40;49.50;;;;;;5016370;28;21005;-69
2022/04/24 03:10:04;;;;;;;6.97;6.47;;;14.40;49.60;;;;;;5016607;28;20447;-69
2022/04/24 03:12:31;;;;;;;5.93;5.53;;;14.30;49.70;;;;;;5016258;28;20471;-69
2022/04/24 03:14:58;;;;;;;6.93;6.33;;;14.30;49.90;;;;;;5016649;28;20451;-69
2022/04/24 03:17:24;;;;;;;6.53;5.80;;;14.30;50.20;;;;;;5016469;28;20431;-69
2022/04/24 03:19:51;;;;;;;6.53;5.93;;;14.20;50.10;;;;;;5016146;28;20904;-69
2022/04/24 03:22:19;;;;;;;6.17;5.67;;;14.20;50.30;;;;;;5016174;28;20502;-69
2022/04/24 03:24:46;;;;;;;7.30;6.70;;;14.20;50.50;;;;;;5016757;28;20451;-69
2022/04/24 03:27:13;;;;;;;6.83;6.10;;;14.20;50.60;;;;;;5016425;28;20475;-69
2022/04/24 03:29:40;;;;;;;6.93;6.33;;;14.10;50.50;;;;;;5016415;28;20487;-69
2022/04/24 03:32:08;;;;;;;6.77;6.17;;;14.10;50.60;;;;;;5016241;28;20471;-69
2022/04/24 03:34:35;;;;;;;7.83;6.53;;;14.10;50.80;;;;;;5016410;28;20544;-69
2022/04/24 03:37:03;;;;;;;6.57;5.90;;;14.10;51.00;;;;;;5016341;28;20478;-69
2022/04/24 03:39:31;;;;;;;6.63;6.13;;;14.00;51.00;;;;;;5016261;28;20545;-69
2022/04/24 03:41:58;;;;;;;7.47;6.90;;;14.00;51.10;;;;;;5016366;28;20467;-69
2022/04/24 03:44:26;;;;;;;7.67;7.00;;;13.90;51.20;;;;;;5016253;28;20451;-69
2022/04/24 03:46:53;;;;;;;6.63;6.13;;;13.90;51.40;;;;;;5015473;28;20950;-69
2022/04/24 03:49:20;;;;;;;7.77;7.13;;;13.80;51.40;;;;;;5016384;28;20459;-69
2022/04/24 03:51:47;;;;;;;6.87;6.20;;;13.80;51.50;;;;;;5014969;28;21010;-69
2022/04/24 03:54:13;;;;;;;7.50;6.90;;;13.80;51.70;;;;;;5016149;28;20436;-69
2022/04/24 03:56:41;;;;;;;7.63;6.97;;;13.70;51.80;;;;;;5015528;28;20923;-69
2022/04/24 03:59:08;;;;;;;7.87;7.27;;;13.70;52.00;;;;;;5015863;28;20451;-69
2022/04/24 04:01:35;;;;;;;6.97;6.47;;;13.70;52.20;;;;;;5015360;28;20987;-68
2022/04/24 04:04:02;;;;;;;7.47;6.87;;;13.60;52.20;;;;;;5015469;28;21013;-69
2022/04/24 04:06:29;;;;;;;7.90;7.23;;;13.60;52.30;;;;;;5015782;28;20443;-69
2022/04/24 04:08:56;;;;;;;9.67;7.00;;;13.60;52.40;;;;;;5015195;28;20479;-69
2022/04/24 04:11:23;;;;;;;7.73;7.10;;;13.50;52.90;;;;;;5015645;28;20482;-69
2022/04/24 04:13:51;;;;;;;6.50;5.90;;;13.50;52.20;;;;;;5016170;28;20455;-69
2022/04/24 04:16:18;;;;;;;6.97;6.40;;;13.50;52.20;;;;;;5015461;28;20491;-69
2022/04/24 04:18:44;;;;;;;7.00;6.40;;;13.50;52.20;;;;;;5015753;28;20452;-69
2022/04/24 04:21:11;;;;;;;7.40;6.80;;;13.50;52.60;;;;;;5015938;28;20467;-69
2022/04/24 04:23:38;;;;;;;7.47;6.87;;;13.40;52.50;;;;;;5015531;28;20450;-69
2022/04/24 04:26:04;;;;;;;7.80;7.10;;;13.40;52.50;;;;;;5015365;28;20470;-68
2022/04/24 04:28:31;;;;;;;7.80;7.10;;;13.40;52.60;;;;;;5015992;28;20506;-68
2022/04/24 04:30:59;;;;;;;7.30;6.70;;;13.40;52.70;;;;;;5015519;28;20475;-69
2022/04/24 04:33:27;;;;;;;7.27;6.67;;;13.40;52.80;;;;;;5015253;28;20447;-69
2022/04/24 04:35:54;;;;;;;7.37;6.77;;;13.40;52.80;;;;;;5015505;28;20558;-69
2022/04/24 04:38:21;;;;;;;7.30;6.70;;;13.30;53.00;;;;;;5015104;28;20454;-69
2022/04/24 04:40:48;;;;;;;7.90;7.13;;;13.30;53.30;;;;;;5015451;28;20482;-69
2022/04/24 04:43:15;;;;;;;7.47;6.80;;;13.30;53.30;;;;;;5015113;28;20466;-68
2022/04/24 04:45:42;;;;;;;8.37;7.67;;;13.30;53.20;;;;;;5015256;28;20455;-69
2022/04/24 04:48:10;;;;;;;7.57;6.27;;;13.30;53.40;;;;;;5015295;28;20470;-69
2022/04/24 04:50:37;;;;;;;8.70;7.00;;;13.30;53.50;;;;;;5015130;28;20455;-69
2022/04/24 04:53:04;;;;;;;7.37;6.83;;;13.30;53.60;;;;;;5014739;28;20513;-69
2022/04/24 04:55:31;;;;;;;8.00;7.40;;;13.30;53.60;;;;;;5014802;28;20454;-68
2022/04/24 04:57:58;;;;;;;7.73;7.03;;;13.30;53.70;;;;;;5014756;28;20447;-68
2022/04/24 05:00:25;;;;;;;6.83;6.30;;;13.30;54.00;;;;;;5014800;28;20871;-68
2022/04/24 05:02:53;;;;;;;8.37;7.60;;;13.20;53.90;;;;;;5013636;28;20473;-68
2022/04/24 05:05:21;;;;;;;8.03;7.40;;;13.20;54.00;;;;;;5014877;28;20443;-68
2022/04/24 05:07:48;;;;;;;7.97;7.17;;;13.30;54.20;;;;;;5014532;28;20487;-68
2022/04/24 05:10:15;;;;;;;8.50;7.70;;;13.30;54.30;;;;;;5014659;28;20462;-68
2022/04/24 05:12:41;;;;;;;8.43;7.73;;;13.20;54.30;;;;;;5014214;28;20486;-68
2022/04/24 05:15:12;;;;;;;8.53;7.70;;;13.30;54.50;;;;;;5014242;28;20435;-68
2022/04/24 05:17:39;;;;;;;8.13;7.40;;;13.30;54.70;;;;;;5014367;28;20470;-68
2022/04/24 05:20:10;;;;;;;8.87;8.17;;;13.30;54.80;;;;;;5014283;28;20523;-68
2022/04/24 05:22:39;;;;;;;10.07;7.97;;;13.30;54.80;;;;;;5014297;28;20482;-68
2022/04/24 05:25:09;;;;;;;7.90;7.30;;;13.30;55.10;;;;;;5014109;28;20554;-68
2022/04/24 05:27:36;;;;;;;8.60;7.80;;;13.30;55.30;;;;;;5014395;28;20483;-68
2022/04/24 05:30:05;;;;;;;10.60;9.37;;;13.30;55.40;;;;;;5014033;28;20498;-68
2022/04/24 05:32:39;;;;;;;9.90;9.10;;;13.30;55.50;;;;;;5014186;28;20475;-68
2022/04/24 05:35:07;;;;;;;9.43;8.53;;;13.30;55.50;;;;;;5014140;28;20851;-68
2022/04/24 05:37:34;;;;;;;8.90;8.10;;;13.40;55.60;;;;;;5014200;28;20447;-68
2022/04/24 05:40:02;;;;;;;9.10;8.37;;;13.40;55.90;;;;;;5013866;28;20451;-68
2022/04/24 05:42:29;;;;;;;9.07;8.30;;;13.50;55.40;;;;;;5014290;28;20483;-69
2022/04/24 05:44:59;;;;;;;9.37;8.57;;;13.50;55.50;;;;;;5014100;28;20494;-69
2022/04/24 05:47:27;;;;;;;8.97;8.17;;;13.50;55.60;;;;;;5014072;28;20542;-69
2022/04/24 05:49:53;;;;;;;9.07;8.27;;;13.60;55.60;;;;;;5013947;28;20904;-68
2022/04/24 05:52:20;;;;;;;9.83;8.97;;;13.70;55.80;;;;;;5013236;28;20998;-69
2022/04/24 05:54:47;;;;;;;10.07;9.17;;;13.80;55.70;;;;;;5013837;28;20443;-68
2022/04/24 05:57:15;;;;;;;10.23;9.40;;;14.00;55.80;;;;;;5013542;28;20448;-68
2022/04/24 05:59:42;;;;;;;9.97;9.13;;;14.10;56.00;;;;;;5014244;28;20458;-69
2022/04/24 06:02:09;;;;;;;9.20;8.40;;;14.10;55.80;;;;;;5013640;28;20478;-69
2022/04/24 06:04:36;;;;;;;10.17;9.37;;;14.20;55.60;;;;;;5013710;28;20455;-69
2022/04/24 06:07:02;;;;;;;8.70;7.90;;;14.30;55.40;;;;;;5013290;28;20812;-68
2022/04/24 06:09:29;;;;;;;7.30;6.80;;;14.40;55.40;;;;;;5013954;28;20490;-69
2022/04/24 06:11:58;;;;;;;9.47;8.67;;;14.50;55.00;;;;;;5013170;28;20478;-69
2022/04/24 06:14:26;;;;;;;9.30;8.50;;;14.60;54.70;;;;;;5013525;28;20506;-69
2022/04/24 06:16:53;;;;;;;9.43;8.53;;;14.70;54.80;;;;;;5013503;28;20455;-69
2022/04/24 06:19:20;;;;;;;8.23;7.50;;;14.80;54.40;;;;;;5013725;28;20447;-69
2022/04/24 06:21:46;;;;;;;10.47;9.37;;;14.80;53.90;;;;;;5013705;28;20474;-69
2022/04/24 06:24:13;;;;;;;9.40;8.60;;;14.90;53.80;;;;;;5014007;28;20451;-69
2022/04/24 06:26:43;;;;;;;10.30;8.70;;;14.90;53.70;;;;;;5013792;28;20451;-68
2022/04/24 06:29:09;;;;;;;8.03;7.37;;;15.00;53.80;;;;;;5013418;28;20896;-68
2022/04/24 06:31:37;;;;;;;7.80;7.20;;;15.10;53.40;;;;;;5013435;28;20471;-67
2022/04/24 06:34:04;;;;;;;9.83;8.20;;;15.20;53.20;;;;;;5013368;28;20806;-67
2022/04/24 06:36:31;;;;;;;10.17;9.20;;;15.20;53.00;;;;;;5013675;28;20462;-67
2022/04/24 06:39:00;;;;;;;8.10;7.40;;;15.30;52.80;;;;;;5013597;28;20447;-67
2022/04/24 06:41:27;;;;;;;8.87;7.97;;;15.40;52.60;;;;;;5013293;28;20904;-67
2022/04/24 06:43:53;;;;;;;9.27;8.47;;;15.50;52.90;;;;;;5013517;28;20443;-67
2022/04/24 06:46:20;;;;;;;9.70;8.77;;;15.60;52.40;;;;;;5013886;28;20454;-67
2022/04/24 06:48:48;;;;;;;9.30;7.70;;;15.60;52.40;;;;;;5013695;28;20856;-67
2022/04/24 06:51:15;;;;;;;8.60;7.80;;;15.70;52.10;;;;;;5013488;28;20491;-68
2022/04/24 06:53:42;;;;;;;8.67;7.97;;;15.70;52.10;;;;;;5013858;28;20458;-67
2022/04/24 06:56:09;;;;;;;7.40;6.90;;;15.80;52.00;;;;;;5013342;28;20448;-67
2022/04/24 06:58:36;;;;;;;9.20;8.40;;;15.80;51.80;;;;;;5013501;28;20443;-67
2022/04/24 07:01:03;;;;;;;10.53;7.90;;;15.90;51.90;;;;;;5013620;28;20474;-68
2022/04/24 07:03:30;;;;;;;8.30;7.60;;;15.90;51.00;;;;;;5013518;28;20454;-68
2022/04/24 07:06:00;;;;;;;8.77;7.97;;;15.80;51.00;;;;;;5013603;28;20443;-68
2022/04/24 07:08:29;;;;;;;6.20;5.60;;;15.80;50.90;;;;;;5013604;28;20497;-67
2022/04/24 07:10:56;;;;;;;12.13;8.03;;;15.80;51.30;;;;;;5014095;28;20475;-68
2022/04/24 07:13:23;;;;;;;8.80;8.10;;;15.90;51.30;;;;;;5013604;28;20448;-68
2022/04/24 07:15:51;;;;;;;8.87;8.07;;;16.00;51.50;;;;;;5013354;28;20458;-68
2022/04/24 07:18:18;;;;;;;9.93;8.43;;;16.10;51.30;;;;;;5013253;28;20451;-68
2022/04/24 07:20:45;;;;;;;8.43;7.73;;;16.20;51.50;;;;;;5013348;28;20482;-69
2022/04/24 07:23:13;;;;;;;8.63;8.00;;;16.30;51.30;;;;;;5013540;28;20523;-69
2022/04/24 07:25:43;;;;;;;7.77;7.17;;;16.40;51.20;;;;;;5014263;28;20451;-69
2022/04/24 07:28:10;;;;;;;8.53;7.77;;;16.50;50.90;;;;;;5016895;28;20478;-69
2022/04/24 07:30:37;;;;;;;8.47;7.87;;;16.60;50.60;;;;;;5016450;28;20857;-69
2022/04/24 07:33:04;;;;;;;7.63;7.10;;;16.80;50.20;;;;;;5016981;28;20451;-68
2022/04/24 07:35:32;;;;;;;9.83;8.97;;;16.90;49.60;;;;;;5016483;28;20450;-69
2022/04/24 07:37:59;;;;;;;8.40;7.70;;;17.00;49.20;;;;;;5016363;28;20506;-68
2022/04/24 07:40:28;;;;;;;8.40;7.77;;;17.00;49.10;;;;;;5016740;28;20459;-68
2022/04/24 07:42:59;;;;;;;7.50;6.90;;;17.10;48.80;;;;;;5016556;28;20455;-68
2022/04/24 07:45:27;;;;;;;7.50;6.90;;;17.20;48.90;;;;;;5016291;28;20843;-68
2022/04/24 07:47:55;;;;;;;7.80;7.20;;;17.40;48.80;;;;;;5016298;28;20965;-68
2022/04/24 07:50:24;;;;;;;9.47;8.57;;;17.60;48.20;;;;;;5016141;28;20483;-68
2022/04/24 07:52:52;;;;;;;8.47;7.77;;;17.80;47.90;;;;;;5016473;28;20567;-68
2022/04/24 07:55:21;;;;;;;8.03;6.80;;;17.90;47.90;;;;;;5016658;28;20443;-68
2022/04/24 07:57:51;;;;;;;6.90;6.40;;;18.00;47.50;;;;;;5016337;28;20477;-68
2022/04/24 08:00:20;;;;;;;8.87;7.30;;;18.00;47.50;;;;;;5016197;28;20951;-68
2022/04/24 08:02:49;;;;;;;7.80;6.17;;;18.10;47.50;;;;;;5016209;28;20519;-68
2022/04/24 08:05:23;;;;;;;8.37;7.67;;;18.10;46.90;;;;;;5016263;28;20454;-69
2022/04/24 08:07:50;;;;;;;7.57;6.77;;;18.20;46.60;;;;;;5016163;28;20439;-69
2022/04/24 08:10:17;;;;;;;8.27;7.57;;;18.30;46.40;;;;;;5016188;28;20479;-68
2022/04/24 08:12:44;;;;;;;7.80;7.03;;;18.50;46.10;;;;;;5015888;28;20814;-68
2022/04/24 08:15:12;;;;;;;7.40;6.63;;;18.60;45.80;;;;;;5015864;28;20455;-68
2022/04/24 08:17:40;;;;;;;8.03;7.20;;;18.90;45.70;;;;;;5015941;28;20470;-69
2022/04/24 08:20:08;;;;;;;7.47;6.87;;;19.00;44.50;;;;;;5015775;28;20452;-69
2022/04/24 08:22:40;;;;;;;8.20;7.37;;;19.10;44.20;;;;;;5015894;28;20483;-68
2022/04/24 08:25:08;;;;;;;7.90;7.10;;;19.20;44.50;;;;;;5016339;28;20431;-69
2022/04/24 08:27:35;;;;;;;7.90;7.30;;;19.50;43.80;;;;;;5015776;28;20455;-69
2022/04/24 08:30:03;;;;;;;7.50;6.90;;;19.60;43.20;;;;;;5015489;28;21076;-69
2022/04/24 08:32:32;;;;;;;7.70;7.00;;;19.80;43.00;;;;;;5015586;28;20503;-69
2022/04/24 08:34:59;;;;;;;7.30;6.80;;;19.90;42.90;;;;;;5015440;28;20910;-69
2022/04/24 08:37:26;;;;;;;8.47;7.53;;;20.10;42.70;;;;;;5015511;28;20478;-69
2022/04/24 08:39:54;;;;;;;7.60;7.00;;;20.30;43.00;;;;;;5015380;28;20454;-69
2022/04/24 08:42:21;;;;;;;8.00;6.40;;;20.40;42.70;;;;;;5015820;28;20471;-69
2022/04/24 08:44:49;;;;;;;8.27;7.47;;;20.60;42.40;;;;;;5015037;28;20880;-69
2022/04/24 08:47:17;;;;;;;9.07;8.37;;;20.70;42.50;;;;;;5015349;28;20455;-69
2022/04/24 08:49:46;;;;;;;6.83;6.27;;;20.90;42.10;;;;;;5015160;28;20471;-69
2022/04/24 08:52:14;;;;;;;9.40;6.70;;;21.10;42.20;;;;;;5015303;28;20497;-69
2022/04/24 08:54:41;;;;;;;6.93;6.33;;;21.20;42.00;;;;;;5015372;28;20458;-68
2022/04/24 08:57:08;;;;;;;6.97;6.37;;;21.40;40.90;;;;;;5015431;28;20448;-68
2022/04/24 08:59:36;;;;;;;6.50;6.00;;;21.70;40.60;;;;;;5015813;28;20439;-69
2022/04/24 09:02:03;;;;;;;7.40;6.80;;;21.90;40.50;;;;;;5015949;28;20482;-69
2022/04/24 09:04:32;;;;;;;7.40;6.70;;;22.10;40.80;;;;;;5015188;28;20503;-69
2022/04/24 09:07:01;;;;;;;9.43;6.90;;;22.30;40.10;;;;;;5014905;28;20470;-69
2022/04/24 09:09:29;;;;;;;7.03;6.57;;;22.50;39.30;;;;;;5014927;28;20541;-69
2022/04/24 09:12:07;;;;;;;7.80;7.20;;;22.50;38.70;;;;;;5014689;28;20460;-69
2022/04/24 09:14:34;;;;;;;6.57;6.03;;;22.60;38.70;;;;;;5014605;28;20450;-69
2022/04/24 09:17:05;;;;;;;7.67;6.93;;;22.70;38.20;;;;;;5014967;28;20478;-69
2022/04/24 09:19:32;;;;;;;9.60;6.53;;;22.90;38.20;;;;;;5014587;28;20853;-68
2022/04/24 09:22:07;;;;;;;7.60;6.90;;;23.00;38.10;;;;;;5014182;28;20479;-68
2022/04/24 09:24:41;;;;;;;7.07;6.50;;;23.10;37.30;;;;;;5014432;28;20447;-68
2022/04/24 09:27:09;;;;;;;9.43;7.17;;;23.30;37.20;;;;;;5014223;28;20451;-68
2022/04/24 09:29:37;;;;;;;7.73;6.77;;;23.40;36.80;;;;;;5014175;28;20518;-68
2022/04/24 09:32:12;;;;;;;7.00;6.50;;;23.60;36.90;;;;;;5014243;28;20475;-68
2022/04/24 09:34:40;;;;;;;7.00;6.33;;;23.80;36.60;;;;;;5013869;28;20818;-68
2022/04/24 09:37:09;;;;;;;7.70;6.87;;;23.90;35.90;;;;;;5014178;28;20440;-68
2022/04/24 09:39:37;;;;;;;8.63;7.40;;;24.10;35.70;;;;;;5014203;28;20440;-68
2022/04/24 09:42:07;;;;;;;7.13;6.57;;;24.10;35.80;;;;;;5014194;28;20471;-68
2022/04/24 09:44:41;;;;;;;8.23;7.53;;;24.10;35.20;;;;;;5013942;28;20935;-68
2022/04/24 09:47:09;;;;;;;7.27;6.70;;;24.30;35.70;;;;;;5014082;28;20485;-67
2022/04/24 09:49:38;;;;;;;7.73;6.77;;;24.40;35.60;;;;;;5013256;28;20888;-68
2022/04/24 09:52:14;;;;;;;7.23;6.73;;;24.50;36.00;;;;;;5013982;28;21018;-68
2022/04/24 09:54:42;;;;;;;7.40;6.80;;;24.80;35.30;;;;;;5014446;28;20455;-68
2022/04/24 09:57:10;;;;;;;7.63;6.93;;;25.00;34.60;;;;;;5014179;28;20443;-68
2022/04/24 09:59:39;;;;;;;8.13;7.43;;;25.20;33.70;;;;;;5014594;28;20805;-68
2022/04/24 10:02:06;;;;;;;9.67;8.03;;;25.40;33.00;;;;;;5014105;28;20472;-68
2022/04/24 10:04:35;;;;;;;7.93;7.23;;;25.50;32.70;;;;;;5013822;28;20443;-68
2022/04/24 10:07:05;;;;;;;7.47;6.97;;;25.70;32.90;;;;;;5013775;28;20486;-68
2022/04/24 10:09:35;;;;;;;8.60;7.07;;;25.90;32.70;;;;;;5013934;28;21038;-68
2022/04/24 10:12:05;;;;;;;8.47;6.17;;;26.20;32.80;;;;;;5014080;28;20503;-68
2022/04/24 10:14:33;;;;;;;8.30;7.30;;;26.50;32.60;;;;;;5013893;28;20474;-68
2022/04/24 10:17:30;;;;;;;8.23;7.47;;;26.90;31.20;;;;;;5013967;28;20840;-68
2022/04/24 10:20:29;;;;;;;7.80;7.20;;;27.00;28.60;;;;;;5013578;28;20436;-69
2022/04/24 10:22:57;;;;;;;9.57;8.20;;;27.30;28.30;;;;;;5014110;28;20432;-68
2022/04/24 10:25:35;;;;;;;8.80;8.07;;;27.40;28.10;;;;;;5014478;28;20446;-68
2022/04/24 10:28:11;;;;;;;8.70;7.90;;;27.50;27.50;;;;;;5013873;28;20439;-68
2022/04/24 10:30:38;;;;;;;13.20;7.67;;;27.60;27.30;;;;;;5014148;28;20860;-68
2022/04/24 10:33:18;;;;;;;8.60;7.90;;;27.70;26.90;;;;;;5013561;28;20973;-68
2022/04/24 10:35:50;;;;;;;8.20;7.50;;;27.70;26.70;;;;;;5013593;28;20436;-68
2022/04/24 10:38:18;;;;;;;7.40;6.83;;;27.70;26.40;;;;;;5013754;28;20486;-68
2022/04/24 10:40:58;;;;;;;7.33;6.83;;;27.70;27.40;;;;;;5013409;28;20958;-68
2022/04/24 10:43:26;;;;;;;8.93;7.97;;;27.90;27.00;;;;;;5013665;28;20493;-68
2022/04/24 10:45:53;;;;;;;7.93;7.30;;;28.00;27.30;;;;;;5013541;28;20906;-68
2022/04/24 10:48:21;;;;;;;8.83;7.63;;;28.30;26.80;;;;;;5013780;28;20781;-68
2022/04/24 10:50:50;;;;;;;8.17;7.57;;;28.60;27.10;;;;;;5013246;28;20582;-68
2022/04/24 10:53:17;;;;;;;8.20;7.00;;;29.10;25.40;;;;;;5013169;28;20458;-68
2022/04/24 10:55:44;;;;;;;7.70;7.07;;;29.40;25.30;;;;;;5014001;28;20447;-69
2022/04/24 10:58:13;;;;;;;7.20;6.70;;;29.60;25.00;;;;;;5013125;28;20435;-68
2022/04/24 11:00:40;;;;;;;8.67;7.87;;;29.90;24.90;;;;;;5014229;28;20451;-68
2022/04/24 11:03:13;;;;;;;7.90;7.30;;;30.20;24.60;;;;;;5017403;28;20974;-68
2022/04/24 11:05:43;;;;;;;8.87;8.00;;;30.50;24.40;;;;;;5018186;28;20435;-70
2022/04/24 11:08:17;;;;;;;8.03;7.23;;;30.70;23.10;;;;;;5017870;28;20534;-70
2022/04/24 11:10:46;;;;;;;7.80;7.20;;;30.90;22.80;;;;;;5019077;28;20470;-69
2022/04/24 11:13:16;;;;;;;8.33;7.73;;;31.30;22.10;;;;;;5017005;28;20950;-69
2022/04/24 11:15:45;;;;;;;7.67;7.17;;;31.80;21.90;;;;;;5017279;28;20439;-69
2022/04/24 11:18:22;;;;;;;8.53;6.90;;;31.90;22.40;;;;;;5017207;28;20481;-69
2022/04/24 11:20:58;;;;;;;8.83;8.03;;;32.00;22.60;;;;;;5017468;28;20856;-69
2022/04/24 11:23:29;;;;;;;8.77;8.07;;;32.00;22.70;;;;;;5016859;28;20470;-67
2022/04/24 11:25:57;;;;;;;9.30;7.87;;;32.10;22.20;;;;;;5016872;28;20447;-69
2022/04/24 11:28:39;;;;;;;8.90;8.20;;;32.40;22.40;;;;;;5016903;28;20454;-69
2022/04/24 11:31:10;;;;;;;8.33;7.63;;;32.90;22.00;;;;;;5017077;28;20486;-69
2022/04/24 11:33:37;;;;;;;8.00;7.40;;;33.00;20.50;;;;;;5016944;28;20498;-69
2022/04/24 11:36:05;;;;;;;8.83;8.13;;;32.90;21.50;;;;;;5016617;28;20457;-69
2022/04/24 11:38:33;;;;;;;9.10;8.40;;;32.90;21.40;;;;;;5016723;28;20482;-69
2022/04/24 11:41:03;;;;;;;9.20;8.50;;;33.20;20.10;;;;;;5016740;28;20463;-69
2022/04/24 11:43:30;;;;;;;8.77;8.17;;;33.40;20.00;;;;;;5016758;28;20453;-68
2022/04/24 11:51:31;;;;;;;24.50;22.70;;;33.70;20.50;;;;;;5016638;28;20482;-68
2022/04/24 11:53:58;;;;;;;20.17;18.67;;;33.50;20.90;;;;;;5016180;28;20439;-68
2022/04/24 11:56:25;;;;;;;25.63;23.77;;;32.70;20.80;;;;;;5016372;28;20457;-68
2022/04/24 11:58:52;;;;;;;8.23;7.43;;;32.30;21.80;;;;;;5016378;28;20451;-68
2022/04/24 12:01:21;;;;;;;26.10;24.17;;;31.70;21.60;;;;;;5015948;28;20986;-68
2022/04/24 12:03:48;;;;;;;7.47;6.93;;;31.30;21.80;;;;;;5016165;28;20450;-68
2022/04/24 12:06:15;;;;;;;7.47;6.87;;;31.70;21.70;;;;;;5016456;28;20451;-69
2022/04/24 12:08:44;;;;;;;7.07;6.57;;;32.00;20.60;;;;;;5016144;28;20455;-69
2022/04/24 12:11:12;;;;;;;7.20;6.70;;;32.40;20.30;;;;;;5015793;28;20530;-69
2022/04/24 12:13:39;;;;;;;6.13;5.73;;;32.50;20.40;;;;;;5016021;28;20491;-69
2022/04/24 12:16:06;;;;;;;6.90;6.30;;;32.90;21.60;;;;;;5016072;28;20465;-69
2022/04/24 12:18:34;;;;;;;6.30;5.90;;;33.40;20.80;;;;;;5016467;28;20450;-69
2022/04/24 12:21:01;;;;;;;7.40;6.90;;;34.10;19.90;;;;;;5015487;28;20997;-69
2022/04/24 12:23:31;;;;;;;6.60;6.20;;;35.10;18.30;;;;;;5016094;28;20447;-69
2022/04/24 12:26:00;;;;;;;7.73;7.13;;;35.50;17.70;;;;;;5016611;28;20830;-69
2022/04/24 12:28:32;;;;;;;6.90;6.40;;;35.60;17.50;;;;;;5016709;28;20496;-69
2022/04/24 12:31:01;;;;;;;7.07;6.47;;;35.70;17.50;;;;;;5016247;28;20577;-68
2022/04/24 12:33:28;;;;;;;5.93;5.53;;;36.10;17.30;;;;;;5016062;28;21026;-69
2022/04/24 12:36:08;;;;;;;5.67;5.13;;;36.50;17.20;;;;;;5016357;28;20451;-69
2022/04/24 12:38:34;;;;;;;6.67;6.03;;;36.30;17.10;;;;;;5015907;28;20866;-69
2022/04/24 12:41:03;;;;;;;7.13;6.63;;;36.40;17.20;;;;;;5015667;28;20840;-69
2022/04/24 12:43:31;;;;;;;7.10;6.60;;;36.00;16.40;;;;;;5015669;28;20462;-69
2022/04/24 12:45:58;;;;;;;7.47;6.77;;;35.30;17.00;;;;;;5015769;28;20459;-69
2022/04/24 12:48:26;;;;;;;7.63;7.03;;;34.10;18.30;;;;;;5015900;28;20484;-69
2022/04/24 12:50:53;;;;;;;7.40;7.00;;;33.00;19.10;;;;;;5015299;28;20548;-74
2022/04/24 12:53:23;;;;;;;6.07;5.67;;;31.90;20.20;;;;;;5015626;28;20521;-69
2022/04/24 12:55:50;;;;;;;6.63;6.17;;;31.20;21.60;;;;;;5015379;28;20578;-69